Time;durP1;ratioP1;P1;durP2;ratioP2;P2;SDS_P1;SDS_P2;PMS_P1;PMS_P2;Temp;Humidity;BMP_temperature;BMP_pressure;BME280_temperature;BME280_humidity;BME280_pressure;Samples;Min_cycle;Max_cycle;Signal;HPM_P1;HPM_P2
2021/10/14 00:01:08;;;;;;;22.80;14.80;;;;;;;4.75;83.28;100968.52;88666;1277;88536;-62
2021/10/14 00:03:16;;;;;;;25.70;16.10;;;;;;;4.73;83.11;100971.94;88648;1278;94264;-80
2021/10/14 00:05:24;;;;;;;22.00;16.80;;;;;;;4.70;82.94;100969.38;88747;1277;81642;-80
2021/10/14 00:07:31;;;;;;;23.40;15.80;;;;;;;4.68;83.09;100969.92;88790;1277;81909;-80
2021/10/14 00:09:39;;;;;;;23.80;16.20;;;;;;;4.68;83.03;100977.80;88849;1277;97187;-63
2021/10/14 00:11:49;;;;;;;23.20;16.70;;;;;;;4.65;83.19;100975.02;88822;1277;87916;-62
2021/10/14 00:13:57;;;;;;;24.30;16.10;;;;;;;4.62;83.21;100971.72;88841;1276;93455;-78
2021/10/14 00:16:08;;;;;;;22.20;15.70;;;;;;;4.63;83.20;100975.36;88850;1276;78801;-79
2021/10/14 00:18:16;;;;;;;24.30;17.00;;;;;;;4.65;82.98;100974.48;88915;1276;80906;-64
2021/10/14 00:20:27;;;;;;;24.90;16.90;;;;;;;4.61;82.99;100973.20;88841;1276;97079;-63
2021/10/14 00:22:35;;;;;;;27.20;17.70;;;;;;;4.59;83.06;100977.85;88836;1277;87448;-62
2021/10/14 00:24:42;;;;;;;24.20;16.50;;;;;;;4.54;83.06;100979.98;88913;1276;94731;-62
2021/10/14 00:26:53;;;;;;;25.70;16.50;;;;;;;4.46;82.92;100978.00;88840;1277;79350;-62
2021/10/14 00:29:02;;;;;;;27.40;18.90;;;;;;;4.37;82.74;100976.12;88890;1276;81830;-63
2021/10/14 00:31:09;;;;;;;27.10;17.60;;;;;;;4.29;82.85;100978.10;88805;1276;97802;-60
2021/10/14 00:33:16;;;;;;;23.30;18.30;;;;;;;4.21;82.98;100977.19;88836;1277;88585;-79
2021/10/14 00:35:24;;;;;;;25.40;18.30;;;;;;;4.16;82.92;100974.95;88954;1277;94215;-80
2021/10/14 00:37:32;;;;;;;25.20;17.40;;;;;;;4.07;83.08;100974.64;88953;1276;80696;-80
2021/10/14 00:39:39;;;;;;;27.00;18.60;;;;;;;3.97;82.96;100973.61;88943;1276;82097;-80
2021/10/14 00:41:47;;;;;;;23.80;16.90;;;;;;;3.90;82.81;100975.78;88752;1277;97479;-80
2021/10/14 00:43:59;;;;;;;24.30;16.70;;;;;;;3.83;82.95;100975.37;88808;1276;89030;-62
2021/10/14 00:46:13;;;;;;;24.80;17.40;;;;;;;3.75;82.97;100976.59;88775;1277;93917;-62
2021/10/14 00:48:24;;;;;;;24.00;17.70;;;;;;;3.68;82.96;100976.83;88779;1277;79668;-60
2021/10/14 00:50:31;;;;;;;25.30;17.70;;;;;;;3.62;83.06;100980.41;88836;1277;82596;-62
2021/10/14 00:52:42;;;;;;;28.80;17.90;;;;;;;3.55;82.83;100982.73;88662;1277;98422;-62
2021/10/14 00:54:55;;;;;;;26.00;18.00;;;;;;;3.50;82.86;100976.09;88907;1276;86086;-63
2021/10/14 00:57:03;;;;;;;27.10;18.10;;;;;;;3.48;83.14;100972.82;88698;1277;94133;-63
2021/10/14 00:59:11;;;;;;;27.40;19.20;;;;;;;3.49;83.22;100972.76;88934;1277;79351;-80
2021/10/14 01:01:22;;;;;;;25.70;18.60;;;;;;;3.51;83.42;100972.39;88963;1277;82956;-81
2021/10/14 01:03:30;;;;;;;25.20;18.40;;;;;;;3.53;83.44;100976.55;88784;1276;98316;-62
2021/10/14 01:05:37;;;;;;;30.20;19.10;;;;;;;3.56;83.64;100975.42;88647;1278;88332;-61
2021/10/14 01:07:44;;;;;;;26.60;19.80;;;;;;;3.60;83.71;100974.35;88814;1277;93366;-62
2021/10/14 01:09:52;;;;;;;27.20;19.30;;;;;;;3.66;83.90;100971.16;88816;1276;80860;-61
2021/10/14 01:12:03;;;;;;;28.60;18.50;;;;;;;3.74;84.00;100968.31;88840;1277;82541;-63
2021/10/14 01:14:10;;;;;;;23.70;17.60;;;;;;;3.83;84.09;100967.04;88878;1277;98039;-63
2021/10/14 01:16:18;;;;;;;24.80;18.00;;;;;;;3.90;84.17;100965.30;88870;1276;87985;-62
2021/10/14 01:18:26;;;;;;;26.60;18.60;;;;;;;3.94;84.32;100963.02;88830;1277;94726;-63
2021/10/14 01:20:34;;;;;;;22.30;16.70;;;;;;;3.97;83.97;100965.55;88873;1277;80829;-62
2021/10/14 01:22:41;;;;;;;28.80;17.90;;;;;;;3.98;84.08;100965.69;88812;1276;81876;-62
2021/10/14 01:24:49;;;;;;;21.10;17.00;;;;;;;3.95;83.85;100967.75;88796;1276;98327;-63
2021/10/14 01:26:56;;;;;;;25.70;17.40;;;;;;;3.89;83.79;100960.92;88833;1276;86759;-63
2021/10/14 01:29:07;;;;;;;22.90;16.40;;;;;;;3.86;83.69;100960.90;88803;1276;93412;-64
2021/10/14 01:31:14;;;;;;;26.10;17.50;;;;;;;3.78;83.79;100956.38;88827;1277;78879;-66
2021/10/14 01:33:22;;;;;;;26.50;16.90;;;;;;;3.71;83.62;100954.14;88876;1276;79906;-63
2021/10/14 01:35:29;;;;;;;25.00;16.60;;;;;;;3.64;83.66;100954.95;88705;1277;98040;-62
2021/10/14 01:37:37;;;;;;;26.00;17.00;;;;;;;3.59;83.66;100958.38;88811;1276;87942;-62
2021/10/14 01:39:44;;;;;;;23.60;16.00;;;;;;;3.61;83.84;100959.84;88774;1277;94831;-78
2021/10/14 01:41:51;;;;;;;26.80;17.40;;;;;;;3.61;83.90;100961.28;88786;1277;77984;-79
2021/10/14 01:44:02;;;;;;;24.90;16.90;;;;;;;3.58;83.72;100958.52;88934;1269;81352;-63
2021/10/14 01:46:10;;;;;;;24.30;17.10;;;;;;;3.53;83.82;100964.41;88902;1276;98247;-62
2021/10/14 01:48:19;;;;;;;25.20;16.50;;;;;;;3.49;83.87;100960.45;88834;1277;87159;-80
2021/10/14 01:50:26;;;;;;;22.20;15.40;;;;;;;3.46;83.70;100965.57;88974;1277;94196;-81
2021/10/14 01:52:34;;;;;;;23.20;16.70;;;;;;;3.40;83.62;100968.20;88774;1276;79281;-80
2021/10/14 01:54:41;;;;;;;24.40;17.40;;;;;;;3.33;83.69;100969.53;88908;1277;81415;-63
2021/10/14 01:56:52;;;;;;;24.00;16.40;;;;;;;3.28;83.71;100965.48;88800;1276;97879;-63
2021/10/14 01:58:59;;;;;;;23.50;16.00;;;;;;;3.24;83.66;100964.29;88789;1275;88684;-79
2021/10/14 02:01:10;;;;;;;24.10;16.40;;;;;;;3.20;83.59;100965.83;88792;1276;94606;-81
2021/10/14 02:03:18;;;;;;;22.30;15.50;;;;;;;3.16;83.71;100966.91;88824;1277;79080;-61
2021/10/14 02:05:25;;;;;;;23.90;15.70;;;;;;;3.12;83.55;100970.44;88866;1275;82126;-63
2021/10/14 02:07:33;;;;;;;22.20;15.40;;;;;;;3.10;83.67;100969.20;88789;1276;97469;-62
2021/10/14 02:09:43;;;;;;;19.70;14.20;;;;;;;3.10;83.79;100968.67;88657;1277;88439;-79
2021/10/14 02:11:54;;;;;;;23.90;16.30;;;;;;;3.10;83.87;100971.18;88669;1277;93220;-80
2021/10/14 02:14:01;;;;;;;23.60;16.30;;;;;;;3.14;84.00;100969.35;88742;1276;80845;-80
2021/10/14 02:16:09;;;;;;;25.40;16.40;;;;;;;3.17;84.07;100975.86;88779;1277;82274;-78
2021/10/14 02:18:20;;;;;;;26.50;15.40;;;;;;;3.15;83.94;100976.58;88732;1277;98493;-62
2021/10/14 02:20:27;;;;;;;25.70;15.80;;;;;;;3.13;83.95;100978.52;88693;1277;87373;-62
2021/10/14 02:22:35;;;;;;;24.90;15.60;;;;;;;3.11;84.04;100986.23;88674;1278;93671;-63
2021/10/14 02:24:45;;;;;;;24.00;15.90;;;;;;;3.11;84.05;100993.46;88752;1277;81286;-63
2021/10/14 02:26:52;;;;;;;22.90;14.50;;;;;;;3.13;84.11;100994.02;88758;1276;82504;-62
2021/10/14 02:29:03;;;;;;;25.20;15.10;;;;;;;3.18;84.23;100998.77;88715;1278;98486;-63
2021/10/14 02:31:10;;;;;;;23.80;14.40;;;;;;;3.25;84.42;100999.20;88746;1278;88581;-62
2021/10/14 02:33:18;;;;;;;23.60;15.70;;;;;;;3.35;84.41;100999.79;88706;1278;94375;-62
2021/10/14 02:35:28;;;;;;;21.70;14.60;;;;;;;3.42;84.57;100999.90;88739;1276;80688;-63
2021/10/14 02:37:36;;;;;;;24.40;15.40;;;;;;;3.52;84.59;101003.02;88729;1278;80458;-63
2021/10/14 02:39:46;;;;;;;25.20;15.90;;;;;;;3.60;84.63;101006.05;88777;1278;98663;-78
2021/10/14 02:41:54;;;;;;;26.40;16.60;;;;;;;3.65;84.53;101007.95;88758;1278;88789;-80
2021/10/14 02:44:02;;;;;;;25.40;14.70;;;;;;;3.71;84.56;101011.17;88738;1277;94048;-80
2021/10/14 02:46:12;;;;;;;26.50;16.50;;;;;;;3.72;84.62;101013.77;88750;1278;81183;-80
2021/10/14 02:48:19;;;;;;;22.70;14.40;;;;;;;3.74;84.54;101013.38;88733;1277;82484;-80
2021/10/14 02:50:27;;;;;;;25.20;15.70;;;;;;;3.76;84.63;101013.19;88694;1277;98211;-78
2021/10/14 02:52:34;;;;;;;24.30;16.50;;;;;;;3.83;84.56;101017.45;88673;1276;88094;-80
2021/10/14 02:54:42;;;;;;;27.00;15.70;;;;;;;3.86;84.61;101018.26;88714;1277;94805;-80
2021/10/14 02:56:52;;;;;;;22.50;14.30;;;;;;;3.88;84.50;101018.96;88683;1277;78359;-80
2021/10/14 02:59:00;;;;;;;24.20;15.40;;;;;;;3.88;84.50;101021.77;88767;1277;81836;-78
2021/10/14 03:01:07;;;;;;;25.80;14.90;;;;;;;3.84;84.40;101023.00;88711;1278;97635;-78
2021/10/14 03:03:14;;;;;;;21.90;14.40;;;;;;;3.85;84.44;101027.58;88749;1277;88570;-62
2021/10/14 03:05:22;;;;;;;21.90;14.20;;;;;;;3.84;84.39;101027.11;88745;1275;94171;-62
2021/10/14 03:07:29;;;;;;;21.30;14.20;;;;;;;3.84;84.18;101031.02;88661;1278;79868;-61
2021/10/14 03:09:37;;;;;;;22.80;14.60;;;;;;;3.85;84.34;101030.62;88789;1277;82820;-78
2021/10/14 03:11:44;;;;;;;24.00;14.80;;;;;;;3.84;84.26;101031.73;88687;1277;97829;-79
2021/10/14 03:13:52;;;;;;;23.00;14.00;;;;;;;3.79;84.38;101032.33;88766;1276;85634;-78
2021/10/14 03:16:04;;;;;;;21.50;14.10;;;;;;;3.81;84.32;101032.91;88754;1278;94071;-80
2021/10/14 03:18:11;;;;;;;27.10;14.90;;;;;;;3.78;84.28;101036.88;88746;1276;79151;-79
2021/10/14 03:20:19;;;;;;;21.40;14.70;;;;;;;3.75;84.33;101038.56;88732;1277;82208;-79
2021/10/14 03:22:26;;;;;;;22.40;13.90;;;;;;;3.74;84.22;101038.34;88741;1276;98880;-78
2021/10/14 03:24:37;;;;;;;21.70;13.30;;;;;;;3.68;84.33;101037.21;88745;1277;85750;-62
2021/10/14 03:26:47;;;;;;;20.50;14.00;;;;;;;3.69;84.35;101042.68;88635;1277;94622;-62
2021/10/14 03:28:56;;;;;;;21.60;13.70;;;;;;;3.68;84.28;101045.07;88640;1277;81042;-62
2021/10/14 03:31:03;;;;;;;19.40;14.70;;;;;;;3.66;84.38;101044.36;88680;1277;81691;-64
2021/10/14 03:33:10;;;;;;;20.20;13.30;;;;;;;3.64;84.32;101047.02;88713;1278;97930;-78
2021/10/14 03:35:18;;;;;;;25.50;13.60;;;;;;;3.63;84.32;101042.64;88707;1277;88605;-80
2021/10/14 03:37:28;;;;;;;19.70;13.30;;;;;;;3.60;84.44;101045.94;88689;1277;95851;-80
2021/10/14 03:39:36;;;;;;;21.90;12.80;;;;;;;3.56;84.48;101048.73;88761;1278;78248;-79
2021/10/14 03:41:43;;;;;;;19.90;12.80;;;;;;;3.47;84.37;101051.62;88757;1277;81995;-80
2021/10/14 03:43:51;;;;;;;19.80;13.30;;;;;;;3.48;84.37;101050.46;88667;1278;97821;-78
2021/10/14 03:45:58;;;;;;;18.60;12.70;;;;;;;3.51;84.39;101051.11;88786;1277;87093;-78
2021/10/14 03:48:06;;;;;;;19.10;12.90;;;;;;;3.52;84.46;101048.05;88713;1275;92553;-62
2021/10/14 03:50:14;;;;;;;20.80;13.10;;;;;;;3.52;84.44;101049.63;88728;1277;78873;-62
2021/10/14 03:52:22;;;;;;;18.90;13.20;;;;;;;3.50;84.55;101050.52;88692;1277;81494;-62
2021/10/14 03:54:29;;;;;;;18.40;13.60;;;;;;;3.52;84.46;101053.89;88785;1277;99205;-78
2021/10/14 03:56:37;;;;;;;21.90;13.90;;;;;;;3.50;84.32;101055.65;88654;1279;88078;-78
2021/10/14 03:58:44;;;;;;;21.70;13.40;;;;;;;3.47;84.48;101057.03;88761;1277;93231;-79
2021/10/14 04:00:53;;;;;;;21.60;13.90;;;;;;;3.43;84.34;101058.77;88701;1277;78545;-79
2021/10/14 04:03:01;;;;;;;18.80;12.80;;;;;;;3.40;84.30;101055.45;88583;1279;82126;-63
2021/10/14 04:05:10;;;;;;;17.00;12.00;;;;;;;3.40;84.48;101056.89;88693;1278;98476;-62
2021/10/14 04:07:20;;;;;;;18.80;11.80;;;;;;;3.32;84.46;101058.46;88672;1277;87164;-61
2021/10/14 04:09:28;;;;;;;20.30;13.70;;;;;;;3.31;84.46;101060.48;88674;1277;95705;-62
2021/10/14 04:11:35;;;;;;;20.40;12.50;;;;;;;3.30;84.31;101057.86;88709;1277;79600;-63
2021/10/14 04:13:43;;;;;;;16.20;12.30;;;;;;;3.30;84.50;101056.62;88745;1277;81966;-62
2021/10/14 04:15:51;;;;;;;16.40;12.00;;;;;;;3.31;84.37;101062.42;88663;1277;97232;-62
2021/10/14 04:17:58;;;;;;;19.50;12.60;;;;;;;3.30;84.42;101063.57;88678;1278;88521;-63
2021/10/14 04:20:08;;;;;;;19.70;13.80;;;;;;;3.26;84.27;101060.94;88761;1277;92993;-62
2021/10/14 04:22:19;;;;;;;19.10;12.90;;;;;;;3.22;84.39;101061.27;88690;1277;78502;-61
2021/10/14 04:24:29;;;;;;;20.80;13.40;;;;;;;3.21;84.37;101065.45;88747;1278;82228;-63
2021/10/14 04:26:36;;;;;;;20.40;13.20;;;;;;;3.22;84.44;101065.73;88675;1275;99618;-62
2021/10/14 04:28:46;;;;;;;16.90;13.40;;;;;;;3.22;84.43;101065.14;88735;1277;87644;-78
2021/10/14 04:30:54;;;;;;;19.50;13.50;;;;;;;3.18;84.47;101063.75;88780;1278;92633;-78
2021/10/14 04:33:02;;;;;;;17.90;13.40;;;;;;;3.17;84.33;101061.48;88756;1277;80804;-77
2021/10/14 04:35:11;;;;;;;19.60;12.60;;;;;;;3.12;84.36;101062.59;88785;1277;81183;-79
2021/10/14 04:37:19;;;;;;;16.80;11.30;;;;;;;3.10;84.35;101066.66;88710;1277;98159;-78
2021/10/14 04:39:26;;;;;;;15.90;11.50;;;;;;;3.08;84.22;101067.55;88599;1279;86759;-78
2021/10/14 04:41:34;;;;;;;17.70;12.60;;;;;;;3.07;84.49;101064.83;88672;1277;95152;-78
2021/10/14 04:43:42;;;;;;;16.60;11.50;;;;;;;3.06;84.39;101069.48;88687;1278;78419;-78
2021/10/14 04:45:49;;;;;;;17.10;12.20;;;;;;;3.07;84.35;101067.16;88682;1278;81960;-77
2021/10/14 04:47:56;;;;;;;19.10;11.60;;;;;;;3.04;84.45;101073.83;88684;1277;98408;-77
2021/10/14 04:50:05;;;;;;;15.50;11.60;;;;;;;2.99;84.33;101071.86;87930;1277;1096341;-77
2021/10/14 04:52:13;;;;;;;17.20;11.60;;;;;;;3.00;84.42;101068.41;88708;1277;93954;-79
2021/10/14 04:54:20;;;;;;;19.70;10.90;;;;;;;3.01;84.52;101068.00;88695;1278;79900;-63
2021/10/14 04:56:27;;;;;;;16.20;10.60;;;;;;;2.96;84.40;101069.61;88707;1278;81348;-62
2021/10/14 04:58:38;;;;;;;19.30;12.80;;;;;;;2.90;84.54;101070.08;88740;1277;98559;-63
2021/10/14 05:00:45;;;;;;;19.50;13.80;;;;;;;2.92;84.52;101073.50;88712;1278;86759;-64
2021/10/14 05:02:53;;;;;;;20.20;13.40;;;;;;;2.99;84.61;101072.21;88686;1278;95628;-70
2021/10/14 05:05:01;;;;;;;21.90;13.70;;;;;;;3.03;84.55;101076.17;88708;1278;78913;-73
2021/10/14 05:07:11;;;;;;;21.80;14.00;;;;;;;3.07;84.75;101077.48;88684;1277;82797;-62
2021/10/14 05:09:19;;;;;;;25.30;15.70;;;;;;;3.09;84.72;101069.77;88720;1277;98755;-59
2021/10/14 05:11:26;;;;;;;23.30;15.00;;;;;;;3.17;84.70;101073.95;88668;1278;88060;-59
2021/10/14 05:13:34;;;;;;;28.80;16.40;;;;;;;3.21;84.64;101076.32;88636;1277;94997;-64
2021/10/14 05:15:43;;;;;;;25.90;15.20;;;;;;;3.25;84.68;101073.33;88648;1277;79674;-62
2021/10/14 05:17:53;;;;;;;23.70;14.80;;;;;;;3.30;84.75;101076.98;88696;1278;81652;-61
2021/10/14 05:20:01;;;;;;;27.70;16.90;;;;;;;3.28;84.82;101074.27;88688;1277;96557;-72
2021/10/14 05:22:08;;;;;;;32.20;16.70;;;;;;;3.28;84.80;101071.56;88687;1278;87202;-73
2021/10/14 05:24:16;;;;;;;30.80;17.90;;;;;;;3.30;84.83;101068.23;88738;1276;94402;-65
2021/10/14 05:26:23;;;;;;;27.50;17.10;;;;;;;3.33;84.78;101069.95;88663;1277;80542;-64
2021/10/14 05:28:31;;;;;;;29.80;17.40;;;;;;;3.32;84.79;101072.86;88665;1278;80217;-72
2021/10/14 05:30:39;;;;;;;26.00;16.70;;;;;;;3.37;84.78;101075.42;88685;1277;98260;-72
2021/10/14 05:33:07;;;;;;;29.20;17.60;;;;;;;3.40;84.82;101070.41;88715;1278;88673;-71
2021/10/14 05:35:15;;;;;;;28.30;17.60;;;;;;;3.43;84.87;101072.09;88695;1278;93505;-72
2021/10/14 05:37:22;;;;;;;29.80;17.50;;;;;;;3.39;84.74;101076.02;88674;1277;79170;-72
2021/10/14 05:39:29;;;;;;;29.20;17.00;;;;;;;3.40;84.73;101078.59;88746;1277;82285;-63
2021/10/14 05:41:40;;;;;;;24.80;15.90;;;;;;;3.40;84.61;101077.90;88693;1277;98021;-71
2021/10/14 05:43:47;;;;;;;26.20;17.20;;;;;;;3.37;84.62;101073.02;88788;1277;87208;-64
2021/10/14 05:45:55;;;;;;;25.00;16.20;;;;;;;3.42;84.49;101070.04;88760;1278;94221;-64
2021/10/14 05:48:06;;;;;;;30.10;16.90;;;;;;;3.42;84.66;101072.02;88621;1279;80071;-73
2021/10/14 05:50:14;;;;;;;24.50;15.80;;;;;;;3.37;84.62;101074.20;88764;1278;82369;-72
2021/10/14 05:52:22;;;;;;;26.20;17.30;;;;;;;3.29;84.53;101077.34;88710;1278;97026;-73
2021/10/14 05:54:29;;;;;;;25.40;16.10;;;;;;;3.30;84.54;101077.42;88811;1277;87273;-73
2021/10/14 05:56:37;;;;;;;28.70;17.90;;;;;;;3.32;84.64;101079.67;88765;1277;94790;-71
2021/10/14 05:58:44;;;;;;;25.50;16.80;;;;;;;3.38;84.63;101083.55;88763;1277;79572;-71
2021/10/14 06:00:52;;;;;;;27.10;17.60;;;;;;;3.41;84.50;101091.48;88754;1277;82367;-71
2021/10/14 06:02:59;;;;;;;27.00;18.90;;;;;;;3.41;84.67;101088.98;88787;1277;98602;-70
2021/10/14 06:05:09;;;;;;;30.30;18.00;;;;;;;3.44;84.75;101087.53;88780;1277;87748;-71
2021/10/14 06:07:19;;;;;;;28.00;18.70;;;;;;;3.58;84.52;101085.67;88684;1278;93058;-70
2021/10/14 06:09:27;;;;;;;29.20;18.10;;;;;;;3.67;84.39;101087.17;88759;1277;79508;-64
2021/10/14 06:11:34;;;;;;;25.40;18.30;;;;;;;3.70;84.44;101089.75;88741;1277;82494;-64
2021/10/14 06:13:45;;;;;;;29.60;18.50;;;;;;;3.75;84.36;101095.08;88793;1278;95913;-63
2021/10/14 06:15:52;;;;;;;32.20;19.60;;;;;;;3.82;84.46;101092.30;88650;1280;86541;-64
2021/10/14 06:18:00;;;;;;;28.40;19.40;;;;;;;3.90;84.47;101088.29;88603;1279;93342;-71
2021/10/14 06:20:09;;;;;;;28.80;18.60;;;;;;;3.95;84.22;101087.61;88765;1277;80745;-63
2021/10/14 06:22:17;;;;;;;27.30;19.20;;;;;;;4.01;84.38;101085.52;88767;1275;81695;-62
2021/10/14 06:24:24;;;;;;;28.30;19.10;;;;;;;4.03;84.15;101080.84;88811;1277;97335;-70
2021/10/14 06:26:32;;;;;;;28.60;18.40;;;;;;;4.12;84.29;101082.63;88637;1279;88276;-62
2021/10/14 06:28:40;;;;;;;25.70;18.10;;;;;;;4.25;84.00;101080.96;88733;1277;94492;-64
2021/10/14 06:30:50;;;;;;;33.00;18.40;;;;;;;4.32;84.01;101081.80;88746;1278;79498;-64
2021/10/14 06:33:01;;;;;;;27.50;18.40;;;;;;;4.38;83.89;101077.68;88715;1277;80738;-69
2021/10/14 06:35:12;;;;;;;26.10;18.10;;;;;;;4.50;84.10;101083.80;88732;1278;97216;-70
2021/10/14 06:37:22;;;;;;;28.60;17.40;;;;;;;4.51;84.03;101081.32;88733;1277;87429;-71
2021/10/14 06:39:33;;;;;;;25.00;18.50;;;;;;;4.54;83.95;101082.71;88762;1277;93876;-69
2021/10/14 06:41:41;;;;;;;24.60;17.40;;;;;;;4.64;84.13;101084.67;88700;1278;79243;-72
2021/10/14 06:43:49;;;;;;;28.50;18.20;;;;;;;4.73;83.98;101086.16;88657;1277;81739;-74
2021/10/14 06:45:56;;;;;;;25.40;17.40;;;;;;;4.83;84.08;101087.61;88738;1277;95339;-72
2021/10/14 06:48:05;;;;;;;26.80;18.00;;;;;;;4.89;83.87;101088.32;88739;1278;88213;-71
2021/10/14 06:50:13;;;;;;;25.00;17.60;;;;;;;4.94;83.82;101087.98;88763;1278;94782;-71
2021/10/14 06:52:21;;;;;;;26.70;17.80;;;;;;;4.91;83.65;101088.48;88726;1278;78885;-71
2021/10/14 06:54:29;;;;;;;25.80;17.50;;;;;;;4.97;83.88;101084.16;88778;1277;82425;-72
2021/10/14 06:56:36;;;;;;;26.50;18.50;;;;;;;5.13;83.95;101084.85;88767;1277;98472;-73
2021/10/14 06:58:44;;;;;;;25.50;17.60;;;;;;;5.21;83.78;101083.95;88733;1277;87511;-64
2021/10/14 07:00:51;;;;;;;22.60;16.40;;;;;;;5.33;83.43;101084.30;88656;1278;94763;-62
2021/10/14 07:03:00;;;;;;;27.20;18.60;;;;;;;5.34;83.43;101090.98;88659;1278;80343;-63
2021/10/14 07:05:09;;;;;;;24.80;17.60;;;;;;;5.35;83.49;101094.05;88769;1278;82481;-63
2021/10/14 07:07:17;;;;;;;23.80;17.50;;;;;;;5.30;83.24;101094.70;88687;1278;98616;-63
2021/10/14 07:09:24;;;;;;;24.10;16.70;;;;;;;5.39;83.64;101098.41;88771;1277;89157;-63
2021/10/14 07:11:42;;;;;;;24.20;17.50;;;;;;;5.61;83.33;101092.80;88690;1277;94868;-64
2021/10/14 07:13:50;;;;;;;26.50;17.30;;;;;;;5.77;83.32;101093.29;88651;1278;82105;-63
2021/10/14 07:15:58;;;;;;;25.90;17.60;;;;;;;5.97;83.13;101094.61;88686;1278;80236;-64
2021/10/14 07:18:05;;;;;;;26.00;17.70;;;;;;;6.10;83.02;101098.08;88717;1278;98646;-71
2021/10/14 07:20:14;;;;;;;25.00;18.20;;;;;;;6.08;82.71;101096.83;88786;1278;88931;-73
2021/10/14 07:22:22;;;;;;;25.60;17.40;;;;;;;6.07;82.59;101094.20;88732;1278;93611;-75
2021/10/14 07:24:30;;;;;;;26.40;16.30;;;;;;;6.15;82.57;101096.67;88770;1277;79965;-73
2021/10/14 07:26:41;;;;;;;23.60;17.70;;;;;;;6.20;82.46;101095.27;88712;1277;81175;-75
2021/10/14 07:28:48;;;;;;;25.90;17.90;;;;;;;6.32;82.44;101091.88;88757;1277;95888;-69
2021/10/14 07:30:56;;;;;;;24.00;16.10;;;;;;;6.67;82.63;101093.27;88776;1278;87018;-69
2021/10/14 07:33:04;;;;;;;24.60;17.80;;;;;;;7.09;82.60;101093.31;88716;1278;94388;-65
2021/10/14 07:35:12;;;;;;;23.70;16.70;;;;;;;7.38;81.95;101087.33;88791;1278;79778;-65
2021/10/14 07:37:20;;;;;;;22.10;16.90;;;;;;;7.68;81.83;101085.42;88800;1277;79571;-64
2021/10/14 07:39:31;;;;;;;23.40;18.20;;;;;;;8.22;81.58;101089.31;88747;1277;98442;-62
2021/10/14 07:41:38;;;;;;;24.80;19.80;;;;;;;8.35;80.79;101090.18;88741;1277;87923;-62
2021/10/14 07:43:45;;;;;;;26.10;19.30;;;;;;;8.51;80.73;101097.11;88762;1278;93946;-73
2021/10/14 07:45:56;;;;;;;26.10;19.80;;;;;;;8.59;80.01;101096.77;88787;1277;81039;-73
2021/10/14 07:48:06;;;;;;;24.30;19.00;;;;;;;8.74;79.76;101097.70;88743;1278;82417;-65
2021/10/14 07:50:15;;;;;;;24.20;19.50;;;;;;;8.59;79.19;101097.16;88762;1277;97135;-65
2021/10/14 07:52:22;;;;;;;24.20;19.80;;;;;;;8.56;79.10;101098.86;88691;1278;87310;-66
2021/10/14 07:54:29;;;;;;;23.30;19.00;;;;;;;8.64;78.81;101097.13;88792;1278;94002;-64
2021/10/14 07:56:37;;;;;;;23.80;18.10;;;;;;;10.06;79.57;101090.09;88683;1278;78625;-65
2021/10/14 07:58:44;;;;;;;21.80;17.80;;;;;;;12.21;78.46;101086.45;88717;1278;80640;-74
2021/10/14 08:00:52;;;;;;;21.90;17.80;;;;;;;13.42;76.15;101083.99;88773;1278;97486;-73
2021/10/14 08:02:59;;;;;;;19.70;17.60;;;;;;;14.06;74.81;101078.42;88720;1275;87301;-66
2021/10/14 08:05:09;;;;;;;20.10;15.50;;;;;;;15.49;73.31;101072.27;88703;1277;95696;-66
2021/10/14 08:07:20;;;;;;;16.50;14.20;;;;;;;16.84;71.38;101071.87;88707;1278;77650;-64
2021/10/14 08:09:30;;;;;;;16.60;13.00;;;;;;;16.94;69.27;101069.91;88761;1278;83357;-74
2021/10/14 08:11:38;;;;;;;16.40;12.60;;;;;;;17.15;67.36;101072.52;88766;1278;97212;-73
2021/10/14 08:13:45;;;;;;;15.30;12.70;;;;;;;16.64;66.08;101071.29;88786;1278;87314;-73
2021/10/14 08:15:53;;;;;;;14.80;12.40;;;;;;;16.07;66.33;101067.46;88756;1277;93824;-74
2021/10/14 08:18:00;;;;;;;15.80;12.10;;;;;;;16.13;66.77;101067.87;88762;1276;79679;-66
2021/10/14 08:20:11;;;;;;;15.60;11.60;;;;;;;16.44;66.02;101067.75;88776;1276;82419;-72
2021/10/14 08:22:18;;;;;;;15.90;12.20;;;;;;;15.77;64.89;101068.25;88756;1278;98392;-71
2021/10/14 08:24:26;;;;;;;15.90;12.60;;;;;;;15.19;65.09;101067.75;88773;1278;88630;-74
2021/10/14 08:26:33;;;;;;;15.30;12.10;;;;;;;14.45;64.90;101066.89;88784;1277;92946;-75
2021/10/14 08:28:44;;;;;;;14.00;11.70;;;;;;;13.58;65.27;101072.95;88749;1278;79980;-75
2021/10/14 08:30:52;;;;;;;14.90;11.90;;;;;;;13.52;65.75;101069.25;88779;1277;82854;-74
2021/10/14 08:32:59;;;;;;;15.30;11.80;;;;;;;13.55;65.81;101068.85;88747;1277;96184;-65
2021/10/14 08:35:09;;;;;;;14.80;11.60;;;;;;;13.95;65.48;101062.50;88795;1277;89063;-71
2021/10/14 08:37:21;;;;;;;14.20;11.80;;;;;;;14.43;65.50;101064.27;88753;1277;93915;-72
2021/10/14 08:39:29;;;;;;;13.90;10.80;;;;;;;14.54;65.72;101062.91;88748;1277;80075;-72
2021/10/14 08:41:39;;;;;;;12.90;10.70;;;;;;;14.60;65.34;101058.69;88760;1278;82557;-73
2021/10/14 08:43:48;;;;;;;14.90;11.00;;;;;;;15.11;64.79;101052.84;88763;1278;99267;-73
2021/10/14 08:45:59;;;;;;;13.60;9.60;;;;;;;16.40;64.15;101047.77;88768;1277;87818;-72
2021/10/14 08:48:09;;;;;;;14.40;8.70;;;;;;;17.05;62.25;101045.30;88667;1278;93492;-73
2021/10/14 08:50:20;;;;;;;11.10;9.00;;;;;;;17.43;61.90;101042.06;88705;1277;79414;-73
2021/10/14 08:52:28;;;;;;;11.30;8.70;;;;;;;18.44;61.51;101033.95;88696;1277;82740;-73
2021/10/14 08:54:36;;;;;;;9.50;7.80;;;;;;;19.13;60.22;101031.48;88681;1276;98232;-74
2021/10/14 08:56:47;;;;;;;10.40;8.60;;;;;;;19.62;59.66;101027.66;88690;1278;88571;-65
2021/10/14 08:58:55;;;;;;;10.70;8.60;;;;;;;19.80;58.15;101023.67;88735;1278;93070;-65
2021/10/14 09:01:14;;;;;;;13.20;8.40;;;;;;;20.25;57.39;101024.55;88694;1277;79878;-66
2021/10/14 09:03:30;;;;;;;10.40;7.70;;;;;;;20.74;56.50;101024.23;88687;1278;80886;-65
2021/10/14 09:05:48;;;;;;;9.20;7.30;;;;;;;21.11;55.96;101017.58;88773;1278;97802;-73
2021/10/14 09:07:55;;;;;;;9.10;7.50;;;;;;;21.44;54.63;101016.40;88728;1278;87218;-74
2021/10/14 09:10:10;;;;;;;10.00;7.40;;;;;;;21.29;53.63;101014.16;88943;1276;93928;-74
2021/10/14 09:12:23;;;;;;;8.90;7.20;;;;;;;21.42;52.70;101006.89;88823;1278;78528;-76
2021/10/14 09:14:30;;;;;;;8.50;6.40;;;;;;;21.20;51.53;101008.39;88872;1277;81347;-66
2021/10/14 09:16:42;;;;;;;7.60;6.00;;;;;;;21.27;51.70;101003.52;88780;1278;97551;-66
2021/10/14 09:18:50;;;;;;;8.60;6.70;;;;;;;21.34;51.34;100997.72;88942;1277;88809;-75
2021/10/14 09:20:58;;;;;;;8.60;6.20;;;;;;;21.64;50.84;100994.61;88939;1277;94145;-75
2021/10/14 09:23:13;;;;;;;10.00;6.30;;;;;;;21.72;50.23;100991.50;88942;1277;78778;-63
2021/10/14 09:25:34;;;;;;;8.10;4.90;;;;;;;21.91;49.28;100986.75;88949;1276;83262;-66
2021/10/14 09:27:47;;;;;;;6.20;4.10;;;;;;;21.72;48.90;100986.64;88956;1277;95923;-65
2021/10/14 09:29:59;;;;;;;5.80;4.20;;;;;;;21.83;48.36;100984.27;88784;1278;86739;-65
2021/10/14 09:32:14;;;;;;;6.90;4.50;;;;;;;22.00;47.87;100982.60;88945;1277;93862;-66
2021/10/14 09:34:37;;;;;;;6.30;3.80;;;;;;;21.91;47.00;100978.71;88894;1277;79646;-66
2021/10/14 09:36:47;;;;;;;4.50;3.50;;;;;;;21.88;46.97;100979.33;88873;1277;82500;-67
2021/10/14 09:39:02;;;;;;;4.90;3.40;;;;;;;21.74;46.58;100976.81;88924;1276;97170;-67
2021/10/14 09:41:13;;;;;;;7.10;3.60;;;;;;;21.66;46.09;100979.98;88743;1277;88591;-66
2021/10/14 09:43:26;;;;;;;6.40;3.10;;;;;;;21.58;45.62;100978.61;88849;1276;93757;-77
2021/10/14 09:45:35;;;;;;;5.60;3.30;;;;;;;21.50;45.55;100974.52;88830;1276;77838;-65
2021/10/14 09:47:48;;;;;;;5.00;3.40;;;;;;;21.24;45.73;100974.56;88818;1277;82063;-67
2021/10/14 09:50:06;;;;;;;4.80;3.50;;;;;;;20.82;45.07;100973.99;88843;1276;96601;-77
2021/10/14 09:52:14;;;;;;;4.20;3.00;;;;;;;20.34;44.93;100973.19;88782;1277;88703;-74